Time;durP1;ratioP1;P1;durP2;ratioP2;P2;SDS_P1;SDS_P2;PMS_P1;PMS_P2;Temp;Humidity;BMP_temperature;BMP_pressure;BME280_temperature;BME280_humidity;BME280_pressure;Samples;Min_cycle;Max_cycle;Signal;HPM_P1;HPM_P2
2023/07/18 00:00:38;;;;;;;6.03;1.83;;;15.30;99.90;;;;;;7278428;19;20215;-79
2023/07/18 00:03:05;;;;;;;8.23;1.70;;;15.30;99.90;;;;;;7278747;19;20534;-79
2023/07/18 00:05:32;;;;;;;9.73;2.10;;;15.40;99.90;;;;;;7279608;19;20181;-79
2023/07/18 00:07:57;;;;;;;7.23;1.60;;;15.40;99.90;;;;;;7279562;19;20200;-78
2023/07/18 00:10:23;;;;;;;5.40;1.63;;;15.30;99.90;;;;;;7288444;19;20639;-79
2023/07/18 00:12:49;;;;;;;7.80;1.70;;;15.40;99.90;;;;;;7302465;19;20671;-74
2023/07/18 00:15:16;;;;;;;8.70;2.50;;;15.40;99.90;;;;;;7277115;19;20198;-74
2023/07/18 00:17:43;;;;;;;5.27;1.80;;;15.50;99.90;;;;;;7277250;19;20217;-74
2023/07/18 00:20:17;;;;;;;5.20;1.63;;;15.50;99.90;;;;;;7276974;19;20259;-74
2023/07/18 00:22:48;;;;;;;8.40;2.10;;;15.50;99.90;;;;;;7277890;19;20664;-75
2023/07/18 00:25:16;;;;;;;7.83;1.77;;;15.50;99.90;;;;;;7278653;19;20183;-74
2023/07/18 00:27:45;;;;;;;6.77;2.00;;;15.50;99.90;;;;;;7279065;19;20193;-74
2023/07/18 00:30:15;;;;;;;7.03;1.80;;;15.50;99.90;;;;;;7280454;19;20279;-75
2023/07/18 00:32:42;;;;;;;8.27;1.97;;;15.50;99.90;;;;;;7285943;19;20220;-74
2023/07/18 00:35:11;;;;;;;6.83;2.00;;;15.50;99.90;;;;;;7283080;19;20252;-75
2023/07/18 00:37:38;;;;;;;5.77;1.87;;;15.50;99.90;;;;;;7285006;19;20195;-74
2023/07/18 00:40:10;;;;;;;7.73;1.90;;;15.20;99.90;;;;;;7284534;19;20192;-75
2023/07/18 00:42:41;;;;;;;9.07;1.77;;;15.20;99.90;;;;;;7283327;19;20192;-74
2023/07/18 00:45:08;;;;;;;5.37;1.43;;;15.00;99.90;;;;;;7283783;19;20532;-74
2023/07/18 00:47:40;;;;;;;8.10;1.77;;;15.00;99.90;;;;;;7282823;19;20647;-74
2023/07/18 00:50:17;;;;;;;7.87;1.60;;;15.10;99.90;;;;;;7285826;19;20196;-74
2023/07/18 00:52:48;;;;;;;9.43;2.07;;;15.10;99.90;;;;;;7285891;19;20224;-74
2023/07/18 00:55:14;;;;;;;5.83;1.97;;;15.10;99.90;;;;;;7284571;19;20607;-74
2023/07/18 00:57:41;;;;;;;8.40;2.20;;;15.10;99.90;;;;;;7285496;19;20712;-74
2023/07/18 01:00:11;;;;;;;9.50;2.20;;;15.10;99.90;;;;;;7284697;19;20203;-74
2023/07/18 01:02:39;;;;;;;7.40;1.70;;;15.20;99.90;;;;;;7284827;19;20271;-74
2023/07/18 01:05:06;;;;;;;9.17;2.23;;;15.00;99.90;;;;;;7285440;19;20199;-74
2023/07/18 01:07:34;;;;;;;7.20;1.83;;;14.90;99.90;;;;;;7283649;19;20188;-74
2023/07/18 01:10:33;;;;;;;7.63;2.00;;;14.80;99.90;;;;;;7283568;19;20195;-73
2023/07/18 01:13:00;;;;;;;8.93;1.97;;;14.70;99.90;;;;;;7180773;19;2004616;-74
2023/07/18 01:15:29;;;;;;;6.83;1.77;;;14.70;99.90;;;;;;7283724;19;20192;-74
2023/07/18 01:17:56;;;;;;;6.27;2.10;;;14.70;99.90;;;;;;7284434;19;20192;-74
2023/07/18 01:20:27;;;;;;;8.93;2.10;;;14.70;99.90;;;;;;7306170;19;20226;-79
2023/07/18 01:23:00;;;;;;;6.00;1.90;;;14.60;99.90;;;;;;7281129;19;20199;-74
2023/07/18 01:25:26;;;;;;;9.50;2.17;;;14.50;99.90;;;;;;7286335;19;20187;-74
2023/07/18 01:27:56;;;;;;;7.17;2.27;;;14.40;99.90;;;;;;7306535;19;20234;-74
2023/07/18 01:30:27;;;;;;;7.87;1.87;;;14.40;99.90;;;;;;7283342;19;20195;-74
2023/07/18 01:32:53;;;;;;;5.40;1.90;;;14.40;99.90;;;;;;7280803;19;20196;-74
2023/07/18 01:35:23;;;;;;;6.40;2.27;;;14.40;99.90;;;;;;7303981;19;20192;-74
2023/07/18 01:37:49;;;;;;;9.60;2.00;;;14.60;99.90;;;;;;7284465;19;20197;-74
2023/07/18 01:40:19;;;;;;;7.73;2.30;;;14.50;99.90;;;;;;7285116;19;20191;-73
2023/07/18 01:42:46;;;;;;;7.57;2.40;;;14.30;99.90;;;;;;7281178;19;20191;-74
2023/07/18 01:45:13;;;;;;;8.03;2.33;;;14.20;99.90;;;;;;7284874;19;20209;-79
2023/07/18 01:47:39;;;;;;;8.30;2.50;;;14.30;99.90;;;;;;7284292;19;20666;-78
2023/07/18 01:50:07;;;;;;;8.40;2.30;;;14.10;99.90;;;;;;7284176;19;20210;-74
2023/07/18 01:52:34;;;;;;;8.40;2.43;;;14.10;99.90;;;;;;7285345;19;20204;-74
2023/07/18 01:55:02;;;;;;;6.63;2.60;;;14.20;99.90;;;;;;7283639;19;20259;-74
2023/07/18 01:57:31;;;;;;;8.00;2.10;;;14.20;99.90;;;;;;7282783;19;20190;-78
2023/07/18 02:00:00;;;;;;;7.20;2.50;;;14.20;99.90;;;;;;7283505;19;20201;-78
2023/07/18 02:02:28;;;;;;;7.23;1.90;;;14.20;99.90;;;;;;7283954;19;20192;-74
2023/07/18 02:04:54;;;;;;;7.63;1.83;;;14.10;99.90;;;;;;7291847;19;20185;-75
2023/07/18 02:07:21;;;;;;;5.70;1.87;;;14.00;99.90;;;;;;7304436;19;20202;-75
2023/07/18 02:09:47;;;;;;;8.33;1.97;;;13.90;99.90;;;;;;7283374;19;20194;-79
2023/07/18 02:12:14;;;;;;;6.73;1.73;;;13.80;99.90;;;;;;7283839;19;20228;-75
2023/07/18 02:14:39;;;;;;;9.30;1.90;;;13.80;99.90;;;;;;7284109;19;20651;-79
2023/07/18 02:17:08;;;;;;;7.23;2.30;;;13.80;99.90;;;;;;7284519;19;20195;-79
2023/07/18 02:19:35;;;;;;;6.53;1.80;;;13.80;99.90;;;;;;7283984;19;20215;-79
2023/07/18 02:22:01;;;;;;;5.17;1.77;;;13.70;99.90;;;;;;7283785;19;20247;-78
2023/07/18 02:24:27;;;;;;;5.73;2.07;;;13.70;99.90;;;;;;7285647;19;20198;-77
2023/07/18 02:26:54;;;;;;;4.47;1.63;;;13.70;99.90;;;;;;7296978;19;20190;-78
2023/07/18 02:29:20;;;;;;;4.97;1.70;;;13.70;99.90;;;;;;7305352;19;20212;-74
2023/07/18 02:31:47;;;;;;;11.23;1.93;;;13.80;99.90;;;;;;7282525;19;20589;-78
2023/07/18 02:34:12;;;;;;;6.37;2.00;;;13.70;99.90;;;;;;7284040;19;20199;-74
2023/07/18 02:36:38;;;;;;;6.10;1.80;;;13.70;99.90;;;;;;7282577;19;20552;-74
2023/07/18 02:39:07;;;;;;;10.13;2.00;;;13.70;99.90;;;;;;7283547;19;20191;-74
2023/07/18 02:41:35;;;;;;;9.40;2.13;;;13.70;99.90;;;;;;7281480;19;20190;-77
2023/07/18 02:44:01;;;;;;;6.63;1.60;;;13.90;99.90;;;;;;7283733;19;20194;-78
2023/07/18 02:46:26;;;;;;;6.70;1.90;;;14.00;99.90;;;;;;7283175;19;20195;-78
2023/07/18 02:48:53;;;;;;;5.77;2.00;;;14.10;99.90;;;;;;7301175;19;20568;-74
2023/07/18 02:51:19;;;;;;;9.57;2.10;;;14.20;99.90;;;;;;7295547;19;20223;-78
2023/07/18 02:53:45;;;;;;;7.43;2.00;;;14.20;99.90;;;;;;7279278;19;20195;-73
2023/07/18 02:56:10;;;;;;;7.77;2.23;;;13.90;99.90;;;;;;7281592;19;20758;-74
2023/07/18 02:58:36;;;;;;;7.77;2.07;;;13.60;99.90;;;;;;7282938;19;20197;-79
2023/07/18 03:01:03;;;;;;;6.30;1.90;;;13.60;99.90;;;;;;7280815;19;20739;-74
2023/07/18 03:03:30;;;;;;;7.93;2.10;;;13.70;99.90;;;;;;7284350;19;20662;-78
2023/07/18 03:05:56;;;;;;;7.60;2.30;;;13.80;99.90;;;;;;7283226;19;20197;-78
2023/07/18 03:08:22;;;;;;;8.33;2.43;;;13.90;99.90;;;;;;7303933;19;20201;-73
2023/07/18 03:10:49;;;;;;;8.30;2.10;;;14.00;99.90;;;;;;7282940;19;20711;-74
2023/07/18 03:13:14;;;;;;;6.47;2.13;;;14.10;99.90;;;;;;7281671;19;20187;-74
2023/07/18 03:15:42;;;;;;;6.13;2.00;;;14.10;99.90;;;;;;7282033;19;20255;-74
2023/07/18 03:18:08;;;;;;;9.23;2.00;;;14.00;99.90;;;;;;7282416;19;20220;-74
2023/07/18 03:20:34;;;;;;;9.27;1.90;;;14.00;99.90;;;;;;7281482;19;20200;-74
2023/07/18 03:23:01;;;;;;;4.40;1.50;;;13.90;99.90;;;;;;7279166;19;20283;-73
2023/07/18 03:25:27;;;;;;;7.07;2.10;;;14.00;99.90;;;;;;7285019;19;20190;-73
2023/07/18 03:27:54;;;;;;;9.07;1.93;;;14.00;99.90;;;;;;7287655;19;20720;-73
2023/07/18 03:30:20;;;;;;;10.03;1.97;;;14.00;99.90;;;;;;7303071;19;20193;-74
2023/07/18 03:32:45;;;;;;;9.23;2.07;;;13.90;99.90;;;;;;7281958;19;20671;-74
2023/07/18 03:35:14;;;;;;;7.07;2.10;;;13.90;99.90;;;;;;7279972;19;20182;-74
2023/07/18 03:37:39;;;;;;;5.43;2.23;;;13.80;99.90;;;;;;7282192;19;20199;-74
2023/07/18 03:40:06;;;;;;;10.47;2.30;;;13.90;99.90;;;;;;7280671;19;20645;-74
2023/07/18 03:42:36;;;;;;;6.40;1.90;;;13.80;99.90;;;;;;7280892;19;20184;-74
2023/07/18 03:45:02;;;;;;;6.23;2.40;;;13.80;99.90;;;;;;7283133;19;20280;-78
2023/07/18 03:47:28;;;;;;;8.57;2.23;;;13.80;99.90;;;;;;7282237;19;20681;-79
2023/07/18 03:49:54;;;;;;;7.63;2.07;;;13.80;99.90;;;;;;7287992;19;20193;-74
2023/07/18 03:52:19;;;;;;;7.70;2.37;;;13.70;99.90;;;;;;7303745;19;20246;-80
2023/07/18 03:54:45;;;;;;;9.30;2.30;;;13.60;99.90;;;;;;7283060;19;20259;-75
2023/07/18 03:57:14;;;;;;;6.10;2.50;;;13.60;99.90;;;;;;7280158;19;20185;-80
2023/07/18 03:59:40;;;;;;;6.63;2.07;;;13.60;99.90;;;;;;7281982;19;20195;-74
2023/07/18 04:02:06;;;;;;;6.67;1.83;;;13.50;99.90;;;;;;7281357;19;21132;-78
2023/07/18 04:04:31;;;;;;;12.17;2.50;;;13.40;99.90;;;;;;7281808;19;20190;-79
2023/07/18 04:06:57;;;;;;;6.50;2.07;;;13.50;99.90;;;;;;7281724;19;20245;-77
2023/07/18 04:09:23;;;;;;;10.80;2.10;;;13.50;99.90;;;;;;7298831;19;20203;-77
2023/07/18 04:11:48;;;;;;;6.53;2.03;;;13.60;99.90;;;;;;7292596;19;20767;-74
2023/07/18 04:14:14;;;;;;;9.87;2.40;;;13.60;99.90;;;;;;7278684;19;20966;-74
2023/07/18 04:16:42;;;;;;;6.20;1.93;;;13.60;99.90;;;;;;7363330;19;20181;-74
2023/07/18 04:19:12;;;;;;;9.33;2.10;;;13.70;99.90;;;;;;7393224;19;20866;-74
2023/07/18 04:21:38;;;;;;;6.57;1.80;;;13.70;99.90;;;;;;7299079;19;20186;-77
2023/07/18 04:24:08;;;;;;;7.77;2.40;;;13.80;99.90;;;;;;7299414;19;20183;-74
2023/07/18 04:26:35;;;;;;;6.67;2.00;;;13.80;99.90;;;;;;7300641;19;20195;-75
2023/07/18 04:29:04;;;;;;;6.80;1.80;;;13.90;99.90;;;;;;7289461;19;20198;-74
2023/07/18 04:31:30;;;;;;;7.50;1.93;;;13.90;99.90;;;;;;7281537;19;20210;-78
2023/07/18 04:33:56;;;;;;;8.67;2.03;;;14.00;99.90;;;;;;7278942;19;20189;-75
2023/07/18 04:36:22;;;;;;;8.30;2.20;;;14.00;99.90;;;;;;7302339;19;20196;-75
2023/07/18 04:38:48;;;;;;;6.87;1.90;;;14.20;99.90;;;;;;7279562;19;20182;-74
2023/07/18 04:41:13;;;;;;;4.83;1.60;;;14.30;99.90;;;;;;7280485;19;21111;-75
2023/07/18 04:43:39;;;;;;;6.10;2.00;;;14.60;99.90;;;;;;7278040;19;20193;-79
2023/07/18 04:46:08;;;;;;;9.37;2.40;;;14.90;99.90;;;;;;7278311;19;20246;-74
2023/07/18 04:48:34;;;;;;;7.37;2.20;;;15.20;99.90;;;;;;7280005;19;20219;-78
2023/07/18 04:51:01;;;;;;;7.50;1.90;;;15.60;99.90;;;;;;7275721;19;20202;-79
2023/07/18 04:53:30;;;;;;;6.47;1.87;;;16.50;99.90;;;;;;7277913;19;20585;-78
2023/07/18 04:55:56;;;;;;;5.13;1.70;;;17.20;99.90;;;;;;7279676;19;21000;-74
2023/07/18 04:58:25;;;;;;;8.07;1.90;;;17.80;99.90;;;;;;7302247;19;20190;-74
2023/07/18 05:00:53;;;;;;;5.47;1.53;;;18.70;99.90;;;;;;7277635;19;20357;-75
2023/07/18 05:03:19;;;;;;;5.13;1.60;;;19.40;99.90;;;;;;7277158;19;20196;-75
2023/07/18 05:05:45;;;;;;;5.93;1.73;;;20.40;99.90;;;;;;7278372;19;20220;-74
2023/07/18 05:08:11;;;;;;;9.83;1.60;;;20.30;99.90;;;;;;7276288;19;20537;-74
2023/07/18 05:10:36;;;;;;;7.63;1.70;;;19.50;99.90;;;;;;7275049;19;20628;-74
2023/07/18 05:13:02;;;;;;;5.77;1.70;;;19.50;99.90;;;;;;7278216;19;20196;-75
2023/07/18 05:15:28;;;;;;;7.93;1.57;;;20.30;99.90;;;;;;7275660;19;20596;-75
2023/07/18 05:17:53;;;;;;;9.57;1.87;;;21.80;99.90;;;;;;7293891;19;20189;-75
2023/07/18 05:20:20;;;;;;;7.83;1.80;;;23.30;99.90;;;;;;7299624;19;20536;-74
2023/07/18 05:22:46;;;;;;;5.13;1.60;;;24.20;99.90;;;;;;7281392;19;20679;-74
2023/07/18 05:25:13;;;;;;;7.90;2.00;;;24.50;99.90;;;;;;7284364;19;20247;-74
2023/07/18 05:27:40;;;;;;;8.47;2.07;;;25.00;99.90;;;;;;7284103;19;20685;-74
2023/07/18 05:30:16;;;;;;;6.77;1.60;;;26.00;99.90;;;;;;7282969;19;20655;-74
2023/07/18 05:32:42;;;;;;;9.40;1.53;;;26.50;99.90;;;;;;7284433;19;20654;-75
2023/07/18 05:35:13;;;;;;;6.50;1.50;;;26.90;99.90;;;;;;7282436;19;20185;-74
2023/07/18 05:37:40;;;;;;;9.93;1.90;;;26.90;99.90;;;;;;7281716;19;20592;-74
2023/07/18 05:40:09;;;;;;;8.70;1.77;;;27.10;99.90;;;;;;7282903;19;20197;-73
2023/07/18 05:42:35;;;;;;;8.73;2.00;;;27.50;99.90;;;;;;7283064;19;20193;-73
2023/07/18 05:45:01;;;;;;;6.60;1.87;;;27.80;99.90;;;;;;7283473;19;20617;-74
2023/07/18 05:47:27;;;;;;;9.30;2.10;;;28.00;99.90;;;;;;7281953;19;20221;-74
2023/07/18 05:49:53;;;;;;;7.47;1.77;;;27.90;99.90;;;;;;7304528;19;20189;-73
2023/07/18 05:52:18;;;;;;;10.65;2.03;;;28.40;99.90;;;;;;7283434;19;20596;-75
2023/07/18 05:54:45;;;;;;;8.30;1.70;;;29.00;99.90;;;;;;7282700;19;20253;-78
2023/07/18 05:57:11;;;;;;;7.95;1.70;;;29.70;99.90;;;;;;7283165;19;20193;-79
2023/07/18 05:59:36;;;;;;;7.53;1.45;;;29.80;98.70;;;;;;7282428;19;20217;-77
2023/07/18 06:02:04;;;;;;;9.15;1.55;;;29.80;98.20;;;;;;7284098;19;20635;-74
2023/07/18 06:04:29;;;;;;;9.32;1.67;;;30.30;98.40;;;;;;7284617;19;20303;-78
2023/07/18 06:06:55;;;;;;;6.63;1.48;;;31.00;95.90;;;;;;7282759;19;20202;-74
2023/07/18 06:09:21;;;;;;;6.28;1.40;;;31.10;95.00;;;;;;7306601;19;20289;-79
2023/07/18 06:11:48;;;;;;;6.80;1.50;;;31.30;94.10;;;;;;7284238;19;20266;-78
2023/07/18 06:14:14;;;;;;;8.27;1.42;;;31.50;93.40;;;;;;7284858;19;20665;-79
2023/07/18 06:16:40;;;;;;;6.45;1.85;;;31.60;93.00;;;;;;7282440;19;20213;-78
2023/07/18 06:19:05;;;;;;;7.90;1.50;;;31.50;91.90;;;;;;7284808;19;20241;-78
2023/07/18 06:21:31;;;;;;;8.15;1.80;;;31.50;92.20;;;;;;7285018;19;20185;-78
2023/07/18 06:23:57;;;;;;;9.10;1.73;;;31.00;91.20;;;;;;7284079;19;20180;-79
2023/07/18 06:26:23;;;;;;;7.80;1.52;;;30.50;91.60;;;;;;7304367;19;20218;-78
2023/07/18 06:28:49;;;;;;;7.47;1.33;;;30.60;92.40;;;;;;7284530;19;20188;-78
2023/07/18 06:31:15;;;;;;;6.25;1.45;;;31.00;91.40;;;;;;7283038;19;20199;-74
2023/07/18 06:33:41;;;;;;;6.93;1.35;;;31.20;91.20;;;;;;7285058;19;20218;-78
2023/07/18 06:36:07;;;;;;;7.82;1.50;;;31.00;91.20;;;;;;7282789;19;20188;-74
2023/07/18 06:38:33;;;;;;;6.85;1.45;;;30.90;91.10;;;;;;7281797;19;20208;-74
2023/07/18 06:40:59;;;;;;;5.20;1.50;;;31.00;90.80;;;;;;7284916;19;20184;-77
2023/07/18 06:43:27;;;;;;;7.15;1.52;;;31.30;91.10;;;;;;7281779;19;20196;-78
2023/07/18 06:45:54;;;;;;;8.25;1.60;;;31.60;90.20;;;;;;7300338;19;20560;-77
2023/07/18 06:48:20;;;;;;;7.78;1.80;;;31.40;90.20;;;;;;7298369;19;20196;-78
2023/07/18 06:50:47;;;;;;;8.18;1.90;;;31.60;89.20;;;;;;7282245;19;20193;-74
2023/07/18 06:53:17;;;;;;;10.15;2.17;;;31.40;89.10;;;;;;7283977;19;20211;-79
2023/07/18 06:55:44;;;;;;;7.82;1.80;;;31.10;89.10;;;;;;7284279;19;20198;-79
2023/07/18 06:58:09;;;;;;;7.03;1.45;;;30.90;89.60;;;;;;7283807;19;20537;-80
2023/07/18 07:00:36;;;;;;;7.55;1.30;;;30.60;90.30;;;;;;7281829;19;20204;-74
2023/07/18 07:03:02;;;;;;;5.88;1.60;;;29.80;90.10;;;;;;7281265;19;20193;-74
2023/07/18 07:05:27;;;;;;;5.70;1.40;;;30.10;90.60;;;;;;7281266;19;20673;-74
2023/07/18 07:07:54;;;;;;;6.97;1.30;;;30.30;89.20;;;;;;7303016;19;20185;-77
2023/07/18 07:10:20;;;;;;;6.32;1.40;;;31.40;87.90;;;;;;7298732;19;20185;-77
2023/07/18 07:12:45;;;;;;;4.82;1.30;;;31.80;86.00;;;;;;7284688;19;21089;-78
2023/07/18 07:15:14;;;;;;;4.72;1.02;;;31.80;87.50;;;;;;7283083;19;20200;-79
2023/07/18 07:17:39;;;;;;;4.13;0.80;;;31.40;85.20;;;;;;7282312;19;20306;-74
2023/07/18 07:20:06;;;;;;;4.22;0.80;;;30.70;84.20;;;;;;7282224;19;20188;-79
2023/07/18 07:22:33;;;;;;;5.72;1.05;;;30.50;84.30;;;;;;7283169;19;20196;-75
2023/07/18 07:24:58;;;;;;;4.45;0.77;;;30.50;84.80;;;;;;7281274;19;20208;-74
2023/07/18 07:27:24;;;;;;;3.15;0.60;;;30.20;84.40;;;;;;7293712;19;20648;-74
2023/07/18 07:29:51;;;;;;;4.47;0.73;;;29.70;85.70;;;;;;7300160;19;20205;-78
2023/07/18 07:32:16;;;;;;;4.63;0.70;;;29.20;83.30;;;;;;7280063;19;20214;-75
2023/07/18 07:34:43;;;;;;;3.97;0.70;;;28.90;85.60;;;;;;7282346;19;20189;-74
2023/07/18 07:37:10;;;;;;;6.15;0.88;;;28.80;88.50;;;;;;7280038;19;20205;-74
2023/07/18 07:39:36;;;;;;;4.82;1.00;;;29.20;89.40;;;;;;7277543;19;20523;-74
2023/07/18 07:42:01;;;;;;;4.88;0.70;;;29.30;89.90;;;;;;7280443;19;20189;-74
2023/07/18 07:44:27;;;;;;;7.00;0.85;;;29.30;88.70;;;;;;7281021;19;20192;-74
2023/07/18 07:46:56;;;;;;;4.28;0.70;;;29.60;88.50;;;;;;7304125;19;20549;-78
2023/07/18 07:49:22;;;;;;;5.07;0.98;;;29.50;88.00;;;;;;7282305;19;20212;-78
2023/07/18 07:51:47;;;;;;;5.28;0.80;;;29.90;88.20;;;;;;7282017;19;20651;-74
2023/07/18 07:54:13;;;;;;;5.22;0.80;;;30.20;85.00;;;;;;7279727;19;20209;-74
2023/07/18 07:56:39;;;;;;;4.93;0.77;;;30.20;84.50;;;;;;7281598;19;20197;-79
2023/07/18 07:59:04;;;;;;;2.58;0.55;;;29.90;83.90;;;;;;7279895;19;20196;-79
2023/07/18 08:01:30;;;;;;;19.13;2.80;;;29.40;83.80;;;;;;7380190;19;20189;-74
2023/07/18 08:03:56;;;;;;;6.78;1.08;;;29.30;85.10;;;;;;7396413;19;20143;-74
2023/07/18 08:06:21;;;;;;;4.65;0.68;;;29.60;85.20;;;;;;7327264;19;20256;-74
2023/07/18 08:08:47;;;;;;;2.90;0.63;;;30.30;81.60;;;;;;7281754;19;20184;-74
2023/07/18 08:11:13;;;;;;;3.55;0.50;;;31.60;79.10;;;;;;7268735;19;20208;-75
2023/07/18 08:13:39;;;;;;;6.50;0.70;;;33.10;76.00;;;;;;7281271;19;20185;-75
2023/07/18 08:16:06;;;;;;;4.10;0.60;;;33.80;76.20;;;;;;7284835;19;20188;-75
2023/07/18 08:18:31;;;;;;;3.47;0.63;;;33.20;73.30;;;;;;7278667;19;20751;-75
2023/07/18 08:20:57;;;;;;;3.30;0.80;;;32.00;75.60;;;;;;7279056;19;20200;-75
2023/07/18 08:23:23;;;;;;;4.53;0.75;;;31.10;74.30;;;;;;7300601;19;20189;-75
2023/07/18 08:25:49;;;;;;;3.58;0.35;;;30.40;76.30;;;;;;7278753;19;20181;-73
2023/07/18 08:28:15;;;;;;;2.65;0.30;;;30.20;74.70;;;;;;7282992;19;20560;-78
2023/07/18 08:30:41;;;;;;;2.80;0.50;;;30.30;77.10;;;;;;7279437;19;20197;-78
2023/07/18 08:33:09;;;;;;;1.65;0.30;;;30.60;75.90;;;;;;7279274;19;20196;-78
2023/07/18 08:35:37;;;;;;;4.25;0.65;;;31.00;72.80;;;;;;7276750;19;20656;-78
2023/07/18 08:38:03;;;;;;;3.78;0.70;;;31.00;72.30;;;;;;7278495;19;20198;-78
2023/07/18 08:40:30;;;;;;;4.22;0.50;;;31.10;71.80;;;;;;7279432;19;20189;-77
2023/07/18 08:42:55;;;;;;;7.57;0.80;;;30.60;72.80;;;;;;7291787;19;20196;-77
2023/07/18 08:45:24;;;;;;;1.25;0.50;;;29.90;73.60;;;;;;7302692;19;20181;-78
2023/07/18 08:48:01;;;;;;;4.10;0.38;;;29.00;74.70;;;;;;7301631;19;20193;-75
2023/07/18 08:50:30;;;;;;;3.78;0.50;;;27.70;77.00;;;;;;7292047;19;20188;-75
2023/07/18 08:52:59;;;;;;;5.15;0.73;;;27.20;80.20;;;;;;7283727;19;20195;-75
2023/07/18 08:55:30;;;;;;;3.67;0.70;;;26.90;81.10;;;;;;7337428;19;20230;-75
2023/07/18 08:57:59;;;;;;;3.33;0.70;;;26.50;82.90;;;;;;7301756;19;20208;-74
2023/07/18 09:00:25;;;;;;;2.63;0.50;;;26.00;83.70;;;;;;7295047;19;20189;-78
2023/07/18 09:02:53;;;;;;;2.10;0.30;;;25.60;82.20;;;;;;7332579;19;20197;-78
2023/07/18 09:05:40;;;;;;;2.63;0.47;;;25.40;81.50;;;;;;7304897;19;20256;-78
2023/07/18 09:08:06;;;;;;;3.70;0.60;;;25.20;83.40;;;;;;7203309;19;2004641;-77
2023/07/18 09:10:33;;;;;;;2.72;0.40;;;25.10;85.60;;;;;;7310298;19;20627;-73
2023/07/18 09:13:09;;;;;;;2.38;0.50;;;24.90;84.10;;;;;;7306529;19;20228;-75
2023/07/18 09:15:39;;;;;;;1.67;0.30;;;24.40;86.00;;;;;;7308351;19;20189;-75
2023/07/18 09:18:12;;;;;;;3.17;0.50;;;24.40;86.90;;;;;;7312010;19;20193;-75
2023/07/18 09:20:41;;;;;;;3.00;0.60;;;24.60;87.70;;;;;;7259845;19;20196;-74
2023/07/18 09:23:08;;;;;;;5.82;0.52;;;24.60;87.30;;;;;;7282903;19;20228;-76
2023/07/18 09:25:41;;;;;;;3.50;0.47;;;24.30;86.70;;;;;;7309145;19;20189;-75
2023/07/18 09:28:11;;;;;;;3.45;0.55;;;24.40;88.50;;;;;;7313613;19;20196;-79
2023/07/18 09:30:37;;;;;;;1.75;0.50;;;24.50;90.00;;;;;;7308833;19;20188;-75
2023/07/18 09:33:14;;;;;;;3.00;0.43;;;24.60;90.10;;;;;;7310124;19;20188;-75
2023/07/18 09:35:40;;;;;;;2.30;0.50;;;24.60;88.30;;;;;;7289437;19;20192;-73
2023/07/18 09:38:14;;;;;;;4.37;0.70;;;24.70;89.00;;;;;;7306391;19;20253;-75
2023/07/18 09:40:44;;;;;;;8.77;0.63;;;24.50;88.50;;;;;;7309133;19;20724;-78
2023/07/18 09:43:12;;;;;;;3.33;0.50;;;24.50;90.80;;;;;;7310649;19;20181;-78
2023/07/18 09:45:59;;;;;;;3.53;0.57;;;24.60;90.10;;;;;;7295390;19;20203;-79
2023/07/18 09:48:29;;;;;;;2.73;0.40;;;24.80;90.70;;;;;;7289905;19;20204;-74
2023/07/18 09:50:58;;;;;;;2.20;0.50;;;25.00;90.90;;;;;;7325055;19;20185;-74
2023/07/18 09:53:27;;;;;;;3.47;0.50;;;25.20;90.30;;;;;;7329461;19;20271;-75
2023/07/18 09:55:59;;;;;;;3.67;0.50;;;25.30;90.30;;;;;;7307002;19;20185;-78
2023/07/18 09:58:29;;;;;;;2.67;0.43;;;25.20;88.60;;;;;;7284756;19;20188;-75
2023/07/18 10:00:57;;;;;;;4.55;0.50;;;25.20;87.20;;;;;;7328233;19;20233;-76
2023/07/18 10:03:25;;;;;;;0.88;0.30;;;25.70;88.00;;;;;;7305579;19;20311;-78
2023/07/18 10:05:53;;;;;;;2.33;0.50;;;26.30;86.50;;;;;;7307580;19;20199;-75
2023/07/18 10:08:27;;;;;;;2.55;0.40;;;27.00;86.40;;;;;;7287741;19;20200;-78
2023/07/18 10:11:07;;;;;;;4.88;0.50;;;27.50;82.50;;;;;;7331089;19;20209;-80
2023/07/18 10:13:42;;;;;;;3.35;0.50;;;28.60;81.70;;;;;;7201756;19;2004608;-79
2023/07/18 10:16:13;;;;;;;4.88;1.38;;;30.10;81.00;;;;;;7305245;19;20189;-75
2023/07/18 10:18:50;;;;;;;3.53;0.70;;;31.10;81.10;;;;;;7310096;19;20192;-77
2023/07/18 10:21:32;;;;;;;6.10;1.00;;;32.20;75.20;;;;;;7307972;19;20184;-77
2023/07/18 10:24:23;;;;;;;4.20;0.60;;;33.50;72.80;;;;;;7203802;19;2004815;-74
2023/07/18 10:27:07;;;;;;;3.95;0.68;;;35.30;70.40;;;;;;7306465;19;20184;-77
2023/07/18 10:29:47;;;;;;;5.93;0.75;;;36.60;63.40;;;;;;7205833;19;2004623;-73
2023/07/18 10:32:13;;;;;;;1.48;0.40;;;37.40;63.00;;;;;;7300988;19;20217;-77
2023/07/18 10:34:53;;;;;;;2.45;0.60;;;37.60;57.00;;;;;;7303381;19;20213;-77
2023/07/18 10:37:26;;;;;;;2.60;0.60;;;36.50;56.20;;;;;;7305305;19;20189;-77
2023/07/18 10:39:56;;;;;;;3.13;0.98;;;36.80;57.00;;;;;;7296877;19;20192;-73
2023/07/18 10:42:30;;;;;;;2.03;0.50;;;36.70;58.40;;;;;;7299899;19;20665;-74
2023/07/18 10:45:13;;;;;;;2.78;0.80;;;37.40;56.20;;;;;;7280263;19;20199;-77
2023/07/18 10:47:41;;;;;;;5.13;0.60;;;37.70;54.50;;;;;;7304646;19;20193;-75
2023/07/18 10:50:09;;;;;;;4.38;0.40;;;38.40;52.10;;;;;;7301693;19;20193;-77
2023/07/18 10:52:40;;;;;;;4.53;0.85;;;38.40;52.50;;;;;;7304831;19;20214;-75
2023/07/18 10:55:08;;;;;;;4.38;0.77;;;39.10;52.70;;;;;;7304805;19;20193;-74
2023/07/18 10:57:38;;;;;;;2.80;0.60;;;39.60;52.70;;;;;;7309602;19;20177;-76
2023/07/18 11:00:12;;;;;;;4.88;0.90;;;39.70;50.50;;;;;;7306530;19;20192;-79
2023/07/18 11:02:41;;;;;;;3.92;0.90;;;39.70;53.40;;;;;;7301839;19;20197;-75
2023/07/18 11:05:11;;;;;;;4.88;1.00;;;38.70;50.50;;;;;;7324131;19;20189;-76
2023/07/18 11:07:41;;;;;;;2.95;0.95;;;39.10;52.20;;;;;;7292972;19;20189;-77
2023/07/18 11:10:10;;;;;;;3.78;1.13;;;39.30;50.60;;;;;;7307128;19;20199;-75
2023/07/18 11:12:40;;;;;;;3.97;1.10;;;38.80;53.20;;;;;;7304922;19;20200;-79
2023/07/18 11:15:13;;;;;;;4.90;1.17;;;38.20;51.90;;;;;;7329106;19;20192;-79
2023/07/18 11:17:41;;;;;;;4.72;1.17;;;39.10;53.90;;;;;;7308190;19;20542;-77
2023/07/18 11:20:11;;;;;;;4.20;1.10;;;39.70;51.70;;;;;;7308065;19;20192;-74
2023/07/18 11:22:58;;;;;;;7.00;1.20;;;40.30;51.00;;;;;;7331418;19;20181;-75
2023/07/18 11:25:33;;;;;;;4.85;1.00;;;40.70;51.20;;;;;;7308974;19;20191;-78
2023/07/18 11:28:04;;;;;;;5.03;1.35;;;40.40;50.60;;;;;;7283313;19;20769;-75
2023/07/18 11:30:31;;;;;;;4.75;1.20;;;40.30;52.20;;;;;;7295390;19;20328;-75
2023/07/18 11:32:57;;;;;;;5.50;1.25;;;40.00;50.90;;;;;;7308131;19;20184;-77
2023/07/18 11:35:25;;;;;;;5.63;1.30;;;39.60;50.90;;;;;;7349418;19;20201;-74
2023/07/18 11:37:53;;;;;;;4.53;1.30;;;38.50;49.50;;;;;;7294122;19;20210;-76
2023/07/18 11:40:28;;;;;;;6.18;1.10;;;35.50;52.00;;;;;;7309932;19;20205;-75
2023/07/18 11:42:58;;;;;;;4.43;1.25;;;35.60;53.30;;;;;;7309271;19;20184;-76
2023/07/18 11:45:26;;;;;;;4.88;1.38;;;36.40;53.00;;;;;;7325009;19;20192;-76
2023/07/18 11:47:57;;;;;;;5.22;1.30;;;37.30;53.50;;;;;;7303401;19;20570;-74
2023/07/18 11:50:29;;;;;;;3.65;1.48;;;37.90;51.60;;;;;;7297576;19;20181;-73
2023/07/18 11:52:58;;;;;;;7.53;1.20;;;37.10;51.10;;;;;;7292478;19;20189;-77
2023/07/18 11:55:24;;;;;;;4.60;1.60;;;37.60;52.10;;;;;;7310453;19;20181;-77
2023/07/18 11:57:50;;;;;;;5.95;1.70;;;37.20;51.00;;;;;;7294280;19;20744;-75
2023/07/18 12:00:17;;;;;;;5.85;1.60;;;37.40;51.40;;;;;;7284306;19;20181;-75
2023/07/18 12:02:43;;;;;;;6.28;1.50;;;37.10;51.60;;;;;;7282778;19;20201;-78
2023/07/18 12:05:11;;;;;;;6.97;1.27;;;37.70;54.10;;;;;;7282214;19;20272;-79
2023/07/18 12:07:36;;;;;;;3.72;1.20;;;37.60;51.70;;;;;;7281813;19;20782;-74
2023/07/18 12:10:06;;;;;;;4.15;1.30;;;38.40;52.80;;;;;;7281806;19;20192;-74
2023/07/18 12:12:33;;;;;;;8.73;1.40;;;38.60;52.20;;;;;;7282609;19;20755;-74
2023/07/18 12:14:59;;;;;;;6.50;1.52;;;37.80;51.30;;;;;;7282448;19;20189;-74
2023/07/18 12:17:26;;;;;;;6.57;1.50;;;36.80;52.00;;;;;;7285451;19;20192;-78
2023/07/18 12:19:52;;;;;;;5.07;1.52;;;35.20;53.00;;;;;;7304514;19;20193;-74
2023/07/18 12:22:18;;;;;;;4.55;1.63;;;34.20;55.40;;;;;;7279788;19;20189;-73
2023/07/18 12:24:44;;;;;;;4.70;1.60;;;33.50;54.40;;;;;;7278914;19;20202;-74
2023/07/18 12:27:12;;;;;;;6.90;1.80;;;33.00;55.90;;;;;;7285794;19;20199;-78
2023/07/18 12:29:38;;;;;;;4.95;1.58;;;32.10;59.90;;;;;;7285146;19;20560;-78
2023/07/18 12:32:04;;;;;;;6.63;1.80;;;31.70;56.80;;;;;;7288124;19;20188;-77
2023/07/18 12:34:30;;;;;;;5.60;1.60;;;31.30;57.50;;;;;;7285936;19;20192;-74
2023/07/18 12:36:56;;;;;;;8.05;1.50;;;30.90;59.50;;;;;;7285789;19;20195;-78
2023/07/18 12:39:22;;;;;;;4.82;1.60;;;30.80;61.10;;;;;;7308288;19;20199;-75
2023/07/18 12:41:49;;;;;;;6.65;1.67;;;30.60;61.00;;;;;;7285021;19;20279;-78
2023/07/18 12:44:19;;;;;;;4.13;1.52;;;30.10;60.20;;;;;;7286299;19;20201;-78
2023/07/18 12:46:46;;;;;;;6.75;1.70;;;29.90;61.70;;;;;;7286914;19;20194;-79
2023/07/18 12:49:13;;;;;;;7.18;1.60;;;29.70;67.20;;;;;;7287717;19;20189;-80